Sarfaq Ittuk — OWDD — position and weather

sailwx.info

Track history (hours):
 
Tides and Currents Weather Stations Pressure Air Temp Water Temp Dewpoint Dewpoint Depression Visibility Wind Speed Wind Dir Waves Ship Positions

Sarfaq Ittuk

Last reported at 2017-Aug-22 19:55 UTC. Time now 2017-Aug-22 22:31 UTC.
Position N 63°29' W 051°33'.

Length 73 m; beam 11.1 m; draft 3.7 m.

Type: Passenger vessel. MMSI: 331000499.

Date/timePositionNaut miles runAvg speedWind from/ knotsBaromVisibWave heightAir tempDewpointWater temp
2017-Aug-22 19:55N 63°29' W 051°33'1510.6
2017-Aug-22 18:33N 63°43' W 051°37'111.2
2017-Aug-22 18:29N 63°44' W 051°36'611.8
2017-Aug-22 18:00N 63°50' W 051°35'611.4
2017-Aug-22 17:26N 63°56' W 051°35'511.4
2017-Aug-22 17:00N 64°00' W 051°41'510.9
2017-Aug-22 16:30N 64°06' W 051°39'510.1
2017-Aug-22 16:00N 64°10' W 051°43'0 0.1
2017-Aug-22 15:30N 64°10' W 051°43'0 0.0
2017-Aug-22 15:00N 64°10' W 051°43'0 0.0
2017-Aug-22 14:30N 64°10' W 051°43'0 0.0
2017-Aug-22 14:00N 64°10' W 051°43'0 0.0
2017-Aug-22 13:30N 64°10' W 051°43'0 0.0
2017-Aug-22 13:00N 64°10' W 051°43'0 0.0
2017-Aug-22 12:31N 64°10' W 051°43'0 0.0
2017-Aug-22 12:00N 64°10' W 051°43'0 0.0
2017-Aug-22 11:30N 64°10' W 051°43'0 0.0
2017-Aug-22 11:00N 64°10' W 051°43'0 0.0
2017-Aug-22 10:30N 64°10' W 051°43'0 0.0
2017-Aug-22 10:00N 64°10' W 051°43'0 0.0
2017-Aug-22 09:30N 64°10' W 051°43'4 7.9
2017-Aug-22 09:00N 64°08' W 051°51'510.1
2017-Aug-22 08:30N 64°06' W 052°01'5 9.8
2017-Aug-22 08:00N 64°05' W 052°12'611.7
2017-Aug-22 07:30N 64°09' W 052°20'510.6
2017-Aug-22 07:00N 64°14' W 052°24'510.6
2017-Aug-22 06:30N 64°19' W 052°27'510.6
2017-Aug-22 06:00N 64°24' W 052°30'510.8
2017-Aug-22 05:30N 64°30' W 052°33'510.6
2017-Aug-22 05:00N 64°35' W 052°35'510.8
2017-Aug-22 04:31N 64°40' W 052°38'611.0
2017-Aug-22 04:00N 64°46' W 052°40'611.3
2017-Aug-22 03:31N 64°51' W 052°43'611.5
2017-Aug-22 03:00N 64°57' W 052°45'611.3
2017-Aug-22 02:30N 65°02' W 052°48'611.2
2017-Aug-22 02:00N 65°08' W 052°50'611.6
2017-Aug-22 01:30N 65°14' W 052°51'30 6.3
2017-Aug-21 20:49N 65°41' W 053°20'511.5
2017-Aug-21 20:25N 65°45' W 053°19'11 6.4
2017-Aug-21 18:45N 65°54' W 053°35'  
2017-Aug-19 06:41N 65°06' W 052°49'2 9.8
2017-Aug-19 06:29N 65°04' W 052°48'510.0
2017-Aug-19 06:00N 64°59' W 052°46'510.0
2017-Aug-19 05:30N 64°54' W 052°44'5 9.9
2017-Aug-19 05:00N 64°49' W 052°42'510.0
2017-Aug-19 04:30N 64°45' W 052°39'510.1
2017-Aug-19 04:00N 64°40' W 052°38'510.3
2017-Aug-19 03:30N 64°35' W 052°35'510.4
2017-Aug-19 03:00N 64°29' W 052°33'510.6
2017-Aug-19 02:30N 64°24' W 052°30'510.7
2017-Aug-19 02:00N 64°19' W 052°27'510.7
2017-Aug-19 01:30N 64°14' W 052°24'510.7
2017-Aug-19 01:00N 64°09' W 052°21'510.8
2017-Aug-19 00:30N 64°04' W 052°16'611.9
2017-Aug-19 00:00N 64°05' W 052°02'611.3
2017-Aug-18 23:31N 64°08' W 051°51'4 8.3
2017-Aug-18 23:00N 64°10' W 051°43'0 0.0
2017-Aug-18 22:30N 64°10' W 051°43'0 0.0
2017-Aug-18 22:00N 64°10' W 051°43'0 0.0
2017-Aug-18 21:30N 64°10' W 051°43'0 0.0
2017-Aug-18 21:00N 64°10' W 051°43'0 0.0
2017-Aug-18 20:30N 64°10' W 051°43'0 0.0
2017-Aug-18 20:00N 64°10' W 051°43'0 0.0
2017-Aug-18 19:31N 64°10' W 051°43'0 0.0
2017-Aug-18 19:01N 64°10' W 051°43'0 0.0
2017-Aug-18 18:30N 64°10' W 051°43'0 0.0
2017-Aug-18 18:00N 64°10' W 051°43'0 0.0
2017-Aug-18 17:30N 64°10' W 051°43'0 0.0
2017-Aug-18 17:01N 64°10' W 051°43'2 3.4
2017-Aug-18 16:30N 64°09' W 051°42'5 9.6
2017-Aug-18 16:00N 64°04' W 051°38'610.8
2017-Aug-18 15:29N 63°59' W 051°39'510.2
2017-Aug-18 15:00N 63°54' W 051°33'1110.9
2017-Aug-18 14:00N 63°44' W 051°37'  
2017-Aug-15 20:03N 63°26' W 051°31'311.6
2017-Aug-15 19:49N 63°29' W 051°33'1211.8
2017-Aug-15 18:46N 63°41' W 051°38'312.1
2017-Aug-15 18:30N 63°44' W 051°36'611.9
2017-Aug-15 18:00N 63°50' W 051°35'611.3
2017-Aug-15 17:27N 63°56' W 051°35'511.7
2017-Aug-15 17:00N 64°01' W 051°41'611.4
2017-Aug-15 16:30N 64°06' W 051°39'5 9.0
2017-Aug-15 16:00N 64°10' W 051°43'0 0.0
2017-Aug-15 15:30N 64°10' W 051°43'0 0.0
2017-Aug-15 15:00N 64°10' W 051°43'0 0.0
2017-Aug-15 14:30N 64°10' W 051°43'0 0.0
2017-Aug-15 14:00N 64°10' W 051°43'0 0.0
2017-Aug-15 13:30N 64°10' W 051°43'0 0.0
2017-Aug-15 13:00N 64°10' W 051°43'0 0.0
2017-Aug-15 12:30N 64°10' W 051°43'0 0.0
2017-Aug-15 12:00N 64°10' W 051°43'0 0.0
2017-Aug-15 11:30N 64°10' W 051°43'0 0.0
2017-Aug-15 11:00N 64°10' W 051°43'0 0.0
2017-Aug-15 10:30N 64°10' W 051°43'0 0.0
2017-Aug-15 10:00N 64°10' W 051°43'0 0.0
2017-Aug-15 09:30N 64°10' W 051°43'2 4.9
2017-Aug-15 09:00N 64°09' W 051°48'510.9
2017-Aug-15 08:30N 64°06' W 051°58'510.7
2017-Aug-15 08:00N 64°04' W 052°09'510.8
2017-Aug-15 07:31N 64°08' W 052°17'511.0
2017-Aug-15 07:00N 64°12' W 052°23'611.4
2017-Aug-15 06:30N 64°18' W 052°27'611.3
2017-Aug-15 06:00N 64°24' W 052°30'611.4
2017-Aug-15 05:31N 64°29' W 052°33'611.5
2017-Aug-15 05:00N 64°35' W 052°35'611.7
2017-Aug-15 04:30N 64°40' W 052°38'611.4
2017-Aug-15 04:00N 64°46' W 052°40'611.4
2017-Aug-15 03:30N 64°52' W 052°43'611.3
2017-Aug-15 03:00N 64°57' W 052°45'611.3
2017-Aug-15 02:30N 65°03' W 052°48'611.3
2017-Aug-15 02:00N 65°08' W 052°50'611.4
2017-Aug-15 01:30N 65°14' W 052°51'611.7
2017-Aug-15 01:00N 65°20' W 052°51'5 9.8
2017-Aug-15 00:30N 65°25' W 052°54'0 0.0
2017-Aug-15 00:00N 65°25' W 052°54'0 0.0
2017-Aug-14 23:30N 65°25' W 052°54'2 3.2
2017-Aug-14 23:00N 65°26' W 052°52'712.1
2017-Aug-14 22:26N 65°33' W 052°51'14 9.2
2017-Aug-14 20:53N 65°40' W 053°20'512.0
2017-Aug-14 20:30N 65°45' W 053°19'11 6.3
2017-Aug-14 18:49N 65°53' W 053°34'  
Track history (hours):
 
Tides and Currents Weather Stations Pressure Air Temp Water Temp Dewpoint Dewpoint Depression Visibility Wind Speed Wind Dir Waves Ship Positions

Sarfaq Ittuk

Last reported at 2017-Aug-22 19:55 UTC. Time now 2017-Aug-22 22:31 UTC.
Position N 63°29' W 051°33'.

Length 73 m; beam 11.1 m; draft 3.7 m.

Type: Passenger vessel. MMSI: 331000499.

Date/timePositionNaut miles runAvg speedWind from/ knotsBaromVisibWave heightAir tempDewpointWater temp
2017-Aug-22 19:55N 63°29' W 051°33'1510.6
2017-Aug-22 18:33N 63°43' W 051°37'111.2
2017-Aug-22 18:29N 63°44' W 051°36'611.8
2017-Aug-22 18:00N 63°50' W 051°35'611.4
2017-Aug-22 17:26N 63°56' W 051°35'511.4
2017-Aug-22 17:00N 64°00' W 051°41'510.9
2017-Aug-22 16:30N 64°06' W 051°39'510.1
2017-Aug-22 16:00N 64°10' W 051°43'0 0.1
2017-Aug-22 15:30N 64°10' W 051°43'0 0.0
2017-Aug-22 15:00N 64°10' W 051°43'0 0.0
2017-Aug-22 14:30N 64°10' W 051°43'0 0.0
2017-Aug-22 14:00N 64°10' W 051°43'0 0.0
2017-Aug-22 13:30N 64°10' W 051°43'0 0.0
2017-Aug-22 13:00N 64°10' W 051°43'0 0.0
2017-Aug-22 12:31N 64°10' W 051°43'0 0.0
2017-Aug-22 12:00N 64°10' W 051°43'0 0.0
2017-Aug-22 11:30N 64°10' W 051°43'0 0.0
2017-Aug-22 11:00N 64°10' W 051°43'0 0.0
2017-Aug-22 10:30N 64°10' W 051°43'0 0.0
2017-Aug-22 10:00N 64°10' W 051°43'0 0.0
2017-Aug-22 09:30N 64°10' W 051°43'4 7.9
2017-Aug-22 09:00N 64°08' W 051°51'510.1
2017-Aug-22 08:30N 64°06' W 052°01'5 9.8
2017-Aug-22 08:00N 64°05' W 052°12'611.7
2017-Aug-22 07:30N 64°09' W 052°20'510.6
2017-Aug-22 07:00N 64°14' W 052°24'510.6
2017-Aug-22 06:30N 64°19' W 052°27'510.6
2017-Aug-22 06:00N 64°24' W 052°30'510.8
2017-Aug-22 05:30N 64°30' W 052°33'510.6
2017-Aug-22 05:00N 64°35' W 052°35'510.8
2017-Aug-22 04:31N 64°40' W 052°38'611.0
2017-Aug-22 04:00N 64°46' W 052°40'611.3
2017-Aug-22 03:31N 64°51' W 052°43'611.5
2017-Aug-22 03:00N 64°57' W 052°45'611.3
2017-Aug-22 02:30N 65°02' W 052°48'611.2
2017-Aug-22 02:00N 65°08' W 052°50'611.6
2017-Aug-22 01:30N 65°14' W 052°51'30 6.3
2017-Aug-21 20:49N 65°41' W 053°20'511.5
2017-Aug-21 20:25N 65°45' W 053°19'11 6.4
2017-Aug-21 18:45N 65°54' W 053°35'  
2017-Aug-19 06:41N 65°06' W 052°49'2 9.8
2017-Aug-19 06:29N 65°04' W 052°48'510.0
2017-Aug-19 06:00N 64°59' W 052°46'510.0
2017-Aug-19 05:30N 64°54' W 052°44'5 9.9
2017-Aug-19 05:00N 64°49' W 052°42'510.0
2017-Aug-19 04:30N 64°45' W 052°39'510.1
2017-Aug-19 04:00N 64°40' W 052°38'510.3
2017-Aug-19 03:30N 64°35' W 052°35'510.4
2017-Aug-19 03:00N 64°29' W 052°33'510.6
2017-Aug-19 02:30N 64°24' W 052°30'510.7
2017-Aug-19 02:00N 64°19' W 052°27'510.7
2017-Aug-19 01:30N 64°14' W 052°24'510.7
2017-Aug-19 01:00N 64°09' W 052°21'510.8
2017-Aug-19 00:30N 64°04' W 052°16'611.9
2017-Aug-19 00:00N 64°05' W 052°02'611.3
2017-Aug-18 23:31N 64°08' W 051°51'4 8.3
2017-Aug-18 23:00N 64°10' W 051°43'0 0.0
2017-Aug-18 22:30N 64°10' W 051°43'0 0.0
2017-Aug-18 22:00N 64°10' W 051°43'0 0.0
2017-Aug-18 21:30N 64°10' W 051°43'0 0.0
2017-Aug-18 21:00N 64°10' W 051°43'0 0.0
2017-Aug-18 20:30N 64°10' W 051°43'0 0.0
2017-Aug-18 20:00N 64°10' W 051°43'0 0.0
2017-Aug-18 19:31N 64°10' W 051°43'0 0.0
2017-Aug-18 19:01N 64°10' W 051°43'0 0.0
2017-Aug-18 18:30N 64°10' W 051°43'0 0.0
2017-Aug-18 18:00N 64°10' W 051°43'0 0.0
2017-Aug-18 17:30N 64°10' W 051°43'0 0.0
2017-Aug-18 17:01N 64°10' W 051°43'2 3.4
2017-Aug-18 16:30N 64°09' W 051°42'5 9.6
2017-Aug-18 16:00N 64°04' W 051°38'610.8
2017-Aug-18 15:29N 63°59' W 051°39'510.2
2017-Aug-18 15:00N 63°54' W 051°33'1110.9
2017-Aug-18 14:00N 63°44' W 051°37'  
2017-Aug-15 20:03N 63°26' W 051°31'311.6
2017-Aug-15 19:49N 63°29' W 051°33'1211.8
2017-Aug-15 18:46N 63°41' W 051°38'312.1
2017-Aug-15 18:30N 63°44' W 051°36'611.9
2017-Aug-15 18:00N 63°50' W 051°35'611.3
2017-Aug-15 17:27N 63°56' W 051°35'511.7
2017-Aug-15 17:00N 64°01' W 051°41'611.4
2017-Aug-15 16:30N 64°06' W 051°39'5 9.0
2017-Aug-15 16:00N 64°10' W 051°43'0 0.0
2017-Aug-15 15:30N 64°10' W 051°43'0 0.0
2017-Aug-15 15:00N 64°10' W 051°43'0 0.0
2017-Aug-15 14:30N 64°10' W 051°43'0 0.0
2017-Aug-15 14:00N 64°10' W 051°43'0 0.0
2017-Aug-15 13:30N 64°10' W 051°43'0 0.0
2017-Aug-15 13:00N 64°10' W 051°43'0 0.0
2017-Aug-15 12:30N 64°10' W 051°43'0 0.0
2017-Aug-15 12:00N 64°10' W 051°43'0 0.0
2017-Aug-15 11:30N 64°10' W 051°43'0 0.0
2017-Aug-15 11:00N 64°10' W 051°43'0 0.0
2017-Aug-15 10:30N 64°10' W 051°43'0 0.0
2017-Aug-15 10:00N 64°10' W 051°43'0 0.0
2017-Aug-15 09:30N 64°10' W 051°43'2 4.9
2017-Aug-15 09:00N 64°09' W 051°48'510.9
2017-Aug-15 08:30N 64°06' W 051°58'510.7
2017-Aug-15 08:00N 64°04' W 052°09'510.8
2017-Aug-15 07:31N 64°08' W 052°17'511.0
2017-Aug-15 07:00N 64°12' W 052°23'611.4
2017-Aug-15 06:30N 64°18' W 052°27'611.3
2017-Aug-15 06:00N 64°24' W 052°30'611.4
2017-Aug-15 05:31N 64°29' W 052°33'611.5
2017-Aug-15 05:00N 64°35' W 052°35'611.7
2017-Aug-15 04:30N 64°40' W 052°38'611.4
2017-Aug-15 04:00N 64°46' W 052°40'611.4
2017-Aug-15 03:30N 64°52' W 052°43'611.3
2017-Aug-15 03:00N 64°57' W 052°45'611.3
2017-Aug-15 02:30N 65°03' W 052°48'611.3
2017-Aug-15 02:00N 65°08' W 052°50'611.4
2017-Aug-15 01:30N 65°14' W 052°51'611.7
2017-Aug-15 01:00N 65°20' W 052°51'5 9.8
2017-Aug-15 00:30N 65°25' W 052°54'0 0.0
2017-Aug-15 00:00N 65°25' W 052°54'0 0.0
2017-Aug-14 23:30N 65°25' W 052°54'2 3.2
2017-Aug-14 23:00N 65°26' W 052°52'712.1
2017-Aug-14 22:26N 65°33' W 052°51'14 9.2
2017-Aug-14 20:53N 65°40' W 053°20'512.0
2017-Aug-14 20:30N 65°45' W 053°19'11 6.3
2017-Aug-14 18:49N 65°53' W 053°34'  

Dump ship's entire track history